createdAt,value
2022-11-29T00:01:42.360Z,9.10
2022-11-29T00:04:11.249Z,9.00
2022-11-29T00:06:39.916Z,9.10
2022-11-29T00:09:12.925Z,9.10
2022-11-29T00:12:03.793Z,9.10
2022-11-29T00:14:32.306Z,9.10
2022-11-29T00:17:03.072Z,9.10
2022-11-29T00:19:31.861Z,9.20
2022-11-29T00:22:00.494Z,9.10
2022-11-29T00:24:32.447Z,9.10
2022-11-29T00:27:01.252Z,9.00
2022-11-29T00:29:30.984Z,9.10
2022-11-29T00:31:59.725Z,9.00
2022-11-29T00:34:28.153Z,9.10
2022-11-29T00:36:56.510Z,9.00
2022-11-29T00:39:25.026Z,9.10
2022-11-29T00:41:54.946Z,9.10
2022-11-29T00:44:23.342Z,9.10
2022-11-29T00:46:51.775Z,9.10
2022-11-29T00:49:20.084Z,9.20
2022-11-29T00:51:48.648Z,9.30
2022-11-29T00:54:17.014Z,9.20
2022-11-29T00:56:45.394Z,9.20
2022-11-29T00:59:15.086Z,9.20
2022-11-29T01:01:43.578Z,9.30
2022-11-29T01:04:11.987Z,9.20
2022-11-29T01:06:40.465Z,9.20
2022-11-29T01:09:08.918Z,9.20
2022-11-29T01:11:38.306Z,9.20
2022-11-29T01:14:06.592Z,9.20
2022-11-29T01:16:36.610Z,9.20
2022-11-29T01:19:07.353Z,9.20
2022-11-29T01:21:35.764Z,9.20
2022-11-29T01:24:04.198Z,9.20
2022-11-29T01:26:33.042Z,9.20
2022-11-29T01:29:01.812Z,9.20
2022-11-29T01:31:32.515Z,9.20
2022-11-29T01:34:04.435Z,9.20
2022-11-29T01:36:33.147Z,9.20
2022-11-29T01:39:02.434Z,9.20
2022-11-29T01:41:32.918Z,9.20
2022-11-29T01:44:04.300Z,9.20
2022-11-29T01:46:35.447Z,9.20
2022-11-29T01:49:09.546Z,9.10
2022-11-29T01:51:40.056Z,9.20
2022-11-29T01:54:10.535Z,9.20
2022-11-29T01:56:40.095Z,9.20
2022-11-29T01:59:12.547Z,9.20
2022-11-29T02:01:41.000Z,9.20
2022-11-29T02:04:11.080Z,9.30
2022-11-29T02:06:40.970Z,9.20
2022-11-29T02:09:20.036Z,9.20
2022-11-29T02:12:09.474Z,9.20
2022-11-29T02:14:53.135Z,9.20
2022-11-29T02:17:31.546Z,9.20
2022-11-29T02:20:29.451Z,9.20
2022-11-29T02:23:02.284Z,9.20
2022-11-29T02:25:50.139Z,9.30
2022-11-29T02:28:46.217Z,9.20
2022-11-29T02:31:50.266Z,9.30
2022-11-29T02:34:47.261Z,9.30
2022-11-29T02:37:35.030Z,9.30
2022-11-29T02:40:26.158Z,9.30
2022-11-29T02:43:21.759Z,9.30
2022-11-29T02:46:21.443Z,9.30
2022-11-29T02:48:57.042Z,9.30
2022-11-29T02:51:36.086Z,9.30
2022-11-29T02:54:13.418Z,9.30
2022-11-29T02:56:48.210Z,9.30
2022-11-29T02:59:28.903Z,9.40
2022-11-29T03:02:04.865Z,9.40
2022-11-29T03:04:39.171Z,9.40
2022-11-29T03:07:16.890Z,9.30
2022-11-29T03:09:55.823Z,9.30
2022-11-29T03:12:32.463Z,9.30
2022-11-29T03:15:11.351Z,9.40
2022-11-29T03:17:55.991Z,9.40
2022-11-29T03:20:36.713Z,9.40
2022-11-29T03:23:19.570Z,9.40
2022-11-29T03:25:54.047Z,9.40
2022-11-29T03:28:25.999Z,9.40
2022-11-29T03:31:02.779Z,9.40
2022-11-29T03:33:40.310Z,9.40
2022-11-29T03:36:14.198Z,9.40
2022-11-29T03:38:46.891Z,9.40
2022-11-29T03:41:24.466Z,9.30
2022-11-29T03:43:58.687Z,9.40
2022-11-29T03:46:34.615Z,9.30
2022-11-29T03:49:05.894Z,9.30
2022-11-29T03:51:48.134Z,9.30
2022-11-29T03:54:23.594Z,9.30
2022-11-29T03:56:52.439Z,9.30
2022-11-29T03:59:33.435Z,9.20
2022-11-29T04:02:53.019Z,9.30
2022-11-29T04:05:41.545Z,9.30
2022-11-29T04:08:51.926Z,9.20
2022-11-29T04:11:56.014Z,9.20
2022-11-29T04:14:44.518Z,9.20
2022-11-29T04:17:47.774Z,9.10
2022-11-29T04:20:52.093Z,9.10
2022-11-29T04:24:02.299Z,9.10
2022-11-29T04:26:54.249Z,9.10
2022-11-29T04:30:04.324Z,9.10
2022-11-29T04:33:15.300Z,9.00
2022-11-29T04:36:06.444Z,9.00
2022-11-29T04:38:50.976Z,8.90
2022-11-29T04:41:53.233Z,8.90
2022-11-29T04:44:38.851Z,8.90
2022-11-29T04:47:28.470Z,8.90
2022-11-29T04:50:15.741Z,8.90
2022-11-29T04:53:15.895Z,9.00
2022-11-29T04:55:51.765Z,8.90
2022-11-29T04:58:26.877Z,8.90
2022-11-29T05:01:03.362Z,8.90
2022-11-29T05:03:45.714Z,8.90
2022-11-29T05:06:34.139Z,8.90
2022-11-29T05:09:13.643Z,8.80
2022-11-29T05:11:55.045Z,8.70
2022-11-29T05:14:37.157Z,8.60
2022-11-29T05:17:34.371Z,8.60
2022-11-29T05:20:14.186Z,8.60
2022-11-29T05:22:49.887Z,8.50
2022-11-29T05:25:36.906Z,8.60
2022-11-29T05:28:12.594Z,8.70
2022-11-29T05:31:12.604Z,8.70
2022-11-29T05:34:13.698Z,8.70
2022-11-29T05:36:50.292Z,8.80
2022-11-29T05:39:34.159Z,8.70
2022-11-29T05:42:30.093Z,8.70
2022-11-29T05:45:03.627Z,8.70
2022-11-29T05:47:37.914Z,8.60
2022-11-29T05:50:12.639Z,8.60
2022-11-29T05:52:54.203Z,8.60
2022-11-29T05:55:34.358Z,8.50
2022-11-29T05:58:10.073Z,8.50
2022-11-29T06:00:49.147Z,8.50
2022-11-29T06:03:26.638Z,8.50
2022-11-29T06:05:59.278Z,8.50
2022-11-29T06:08:37.910Z,8.50
2022-11-29T06:11:15.325Z,8.40
2022-11-29T06:13:57.259Z,8.40
2022-11-29T06:16:39.148Z,8.50
2022-11-29T06:19:35.814Z,8.50
2022-11-29T06:22:17.180Z,8.50
2022-11-29T06:24:58.482Z,8.50
2022-11-29T06:27:49.966Z,8.40
2022-11-29T06:30:22.108Z,8.40
2022-11-29T06:32:56.507Z,8.30
2022-11-29T06:35:38.882Z,8.30
2022-11-29T06:38:15.507Z,8.40
2022-11-29T06:40:46.130Z,8.30
2022-11-29T06:43:15.221Z,8.30
2022-11-29T06:45:50.441Z,8.30
2022-11-29T06:48:24.649Z,8.30
2022-11-29T06:51:01.790Z,8.40
2022-11-29T06:53:40.273Z,8.50
2022-11-29T06:56:19.984Z,8.50
2022-11-29T06:59:00.139Z,8.50
2022-11-29T07:01:38.187Z,8.50
2022-11-29T07:04:32.238Z,8.50
2022-11-29T07:07:01.329Z,8.60
2022-11-29T07:09:35.065Z,8.60
2022-11-29T07:12:05.904Z,8.60
2022-11-29T07:14:34.764Z,8.40
2022-11-29T07:17:11.553Z,8.50
2022-11-29T07:19:49.814Z,8.50
2022-11-29T07:22:36.242Z,8.50
2022-11-29T07:25:18.220Z,8.50
2022-11-29T07:27:58.715Z,8.60
2022-11-29T07:30:35.687Z,8.50
2022-11-29T07:33:12.704Z,8.60
2022-11-29T07:35:47.821Z,8.60
2022-11-29T07:38:24.137Z,8.50
2022-11-29T07:41:00.311Z,8.50
2022-11-29T07:43:43.480Z,8.50
2022-11-29T07:46:11.887Z,8.70
2022-11-29T07:48:40.299Z,8.70
2022-11-29T07:51:09.495Z,8.70
2022-11-29T07:53:44.383Z,8.70
2022-11-29T07:56:15.044Z,8.60
2022-11-29T07:58:44.889Z,8.60
2022-11-29T08:01:13.956Z,8.70
2022-11-29T08:03:43.229Z,8.70
2022-11-29T08:06:14.259Z,8.60
2022-11-29T08:08:44.310Z,8.50
2022-11-29T08:11:14.348Z,8.50
2022-11-29T08:13:44.237Z,8.50
2022-11-29T08:16:17.628Z,8.40
2022-11-29T08:18:46.220Z,8.40
2022-11-29T08:21:18.195Z,8.40
2022-11-29T08:23:46.678Z,8.60
2022-11-29T08:26:16.143Z,8.60
2022-11-29T08:28:46.002Z,8.60
2022-11-29T08:31:14.660Z,8.70
2022-11-29T08:33:44.838Z,8.70
2022-11-29T08:36:15.189Z,8.70
2022-11-29T08:38:44.044Z,8.60
2022-11-29T08:41:14.951Z,8.60
2022-11-29T08:43:46.082Z,8.50
2022-11-29T08:46:18.511Z,8.70
2022-11-29T08:48:47.563Z,8.80
2022-11-29T08:51:16.087Z,8.80
2022-11-29T08:53:43.646Z,8.80
2022-11-29T08:56:59.594Z,8.80
2022-11-29T08:59:03.990Z,8.80
2022-11-29T09:01:33.348Z,8.70
2022-11-29T09:04:03.023Z,8.70
2022-11-29T09:06:34.351Z,8.60
2022-11-29T09:09:03.286Z,8.70
2022-11-29T09:11:37.608Z,8.80
2022-11-29T09:14:09.576Z,8.80
2022-11-29T09:16:40.138Z,8.90
2022-11-29T09:19:10.287Z,9.00
2022-11-29T09:21:39.107Z,9.10
2022-11-29T09:24:10.343Z,9.20
2022-11-29T09:26:41.186Z,9.20
2022-11-29T09:29:12.710Z,9.20
2022-11-29T09:31:45.374Z,9.20
2022-11-29T09:34:15.119Z,9.30
2022-11-29T09:36:44.620Z,9.40
2022-11-29T09:39:18.510Z,9.40
2022-11-29T09:42:19.157Z,9.40
2022-11-29T09:45:02.439Z,9.40
2022-11-29T09:48:13.477Z,9.60
2022-11-29T09:50:50.258Z,9.60
2022-11-29T09:53:34.503Z,9.70
2022-11-29T09:56:13.415Z,9.80
2022-11-29T09:58:48.769Z,9.90
2022-11-29T10:01:29.696Z,9.90
2022-11-29T10:04:06.742Z,9.80
2022-11-29T10:06:46.551Z,9.80
2022-11-29T10:09:23.464Z,9.70
2022-11-29T10:12:39.652Z,9.70
2022-11-29T10:16:01.951Z,9.70
2022-11-29T10:23:21.050Z,9.80
2022-11-29T10:26:35.462Z,9.90
2022-11-29T10:29:23.399Z,9.90
2022-11-29T10:35:20.606Z,10.00
2022-11-29T10:41:24.379Z,9.90
2022-11-29T10:44:32.518Z,9.90
2022-11-29T10:47:19.607Z,9.80
2022-11-29T10:53:22.337Z,9.80
2022-11-29T10:56:26.198Z,9.80
2022-11-29T10:59:29.735Z,9.80
2022-11-29T11:02:27.537Z,9.70
2022-11-29T11:05:27.891Z,9.70
2022-11-29T11:08:19.056Z,9.80
2022-11-29T11:11:06.306Z,9.90
2022-11-29T11:14:05.210Z,9.90
2022-11-29T11:16:37.702Z,9.90
2022-11-29T11:19:32.340Z,9.80
2022-11-29T11:22:07.192Z,9.80
2022-11-29T11:24:56.154Z,9.80
2022-11-29T11:27:42.594Z,9.70
2022-11-29T11:30:26.704Z,9.70
2022-11-29T11:33:21.030Z,9.60
2022-11-29T11:36:16.231Z,9.70
2022-11-29T11:39:12.986Z,9.70
2022-11-29T11:42:21.110Z,9.80
2022-11-29T11:45:01.616Z,9.80
2022-11-29T11:47:43.819Z,9.90
2022-11-29T11:50:23.117Z,9.90
2022-11-29T11:53:04.183Z,10.00
2022-11-29T11:55:58.367Z,9.90
2022-11-29T11:58:43.349Z,9.90
2022-11-29T12:01:41.594Z,10.10
2022-11-29T12:04:23.579Z,10.00
2022-11-29T12:09:58.922Z,10.00
2022-11-29T12:12:41.525Z,10.00
2022-11-29T12:15:25.964Z,10.00
2022-11-29T12:18:07.565Z,10.00
2022-11-29T12:20:43.008Z,10.10
2022-11-29T12:23:33.656Z,10.10
2022-11-29T12:26:19.295Z,10.00
2022-11-29T12:29:11.892Z,10.00
2022-11-29T12:32:19.643Z,10.00
2022-11-29T12:35:18.516Z,10.00
2022-11-29T12:38:03.553Z,10.10
2022-11-29T12:40:41.857Z,10.10
2022-11-29T12:43:36.443Z,10.20
2022-11-29T12:46:20.662Z,10.00
2022-11-29T12:49:09.199Z,9.80
2022-11-29T12:51:58.327Z,9.80
2022-11-29T12:54:47.274Z,9.70
2022-11-29T12:57:27.424Z,9.60
2022-11-29T13:00:13.275Z,9.60
2022-11-29T13:03:13.945Z,9.50
2022-11-29T13:05:55.369Z,9.60
2022-11-29T13:09:04.282Z,9.60
2022-11-29T13:11:36.833Z,9.70
2022-11-29T13:14:41.687Z,9.60
2022-11-29T13:17:20.920Z,9.50
2022-11-29T13:20:00.178Z,9.50
2022-11-29T13:22:45.868Z,9.50
2022-11-29T13:25:20.524Z,9.50
2022-11-29T13:27:58.522Z,9.50
2022-11-29T13:30:27.635Z,9.50
2022-11-29T13:33:02.909Z,9.50
2022-11-29T13:35:37.746Z,9.50
2022-11-29T13:38:15.857Z,9.50
2022-11-29T13:40:58.402Z,9.50
2022-11-29T13:43:36.384Z,9.40
2022-11-29T13:46:18.049Z,9.40
2022-11-29T13:48:53.680Z,9.30
2022-11-29T13:51:42.915Z,9.40
2022-11-29T13:54:30.202Z,9.30
2022-11-29T13:57:08.160Z,9.20
2022-11-29T13:59:45.885Z,9.10
2022-11-29T14:02:30.739Z,9.10
2022-11-29T14:04:59.727Z,9.10
2022-11-29T14:07:28.862Z,9.10
2022-11-29T14:10:03.033Z,9.10
2022-11-29T14:12:41.756Z,9.20
2022-11-29T14:15:22.556Z,9.10
2022-11-29T14:17:55.128Z,9.20
2022-11-29T14:20:58.286Z,9.10
2022-11-29T14:23:41.730Z,9.00
2022-11-29T14:26:29.817Z,9.00
2022-11-29T14:29:03.262Z,9.00
2022-11-29T14:31:53.863Z,9.00
2022-11-29T14:34:47.408Z,9.10
2022-11-29T14:37:45.199Z,9.00
2022-11-29T14:40:25.075Z,9.00
2022-11-29T14:42:54.428Z,9.00
2022-11-29T14:45:27.727Z,9.00
2022-11-29T14:47:57.222Z,8.90
2022-11-29T14:50:35.691Z,8.90
2022-11-29T14:53:05.802Z,8.90
2022-11-29T14:55:37.018Z,8.90
2022-11-29T14:58:22.365Z,9.00
2022-11-29T15:01:10.107Z,9.00
2022-11-29T15:03:48.846Z,8.90
2022-11-29T15:06:25.694Z,8.90
2022-11-29T15:09:01.442Z,8.90
2022-11-29T15:11:44.511Z,8.90
2022-11-29T15:14:20.365Z,8.90
2022-11-29T15:17:03.833Z,8.80
2022-11-29T15:20:19.935Z,8.80
2022-11-29T15:22:52.690Z,8.80
2022-11-29T15:25:23.220Z,8.80
2022-11-29T15:27:53.718Z,8.80
2022-11-29T15:30:29.572Z,8.80
2022-11-29T15:33:01.341Z,8.80
2022-11-29T15:35:30.030Z,8.80
2022-11-29T15:37:58.983Z,8.90
2022-11-29T15:40:35.099Z,8.80
2022-11-29T15:43:16.914Z,8.80
2022-11-29T15:45:49.359Z,8.80
2022-11-29T15:48:22.856Z,8.80
2022-11-29T15:50:59.265Z,8.80
2022-11-29T15:53:31.905Z,8.80
2022-11-29T15:56:03.202Z,8.80
2022-11-29T15:58:34.513Z,8.80
2022-11-29T16:01:04.514Z,8.80
2022-11-29T16:03:39.289Z,8.80
2022-11-29T16:06:19.570Z,8.70
2022-11-29T16:08:48.902Z,8.70
2022-11-29T16:11:21.698Z,8.70
2022-11-29T16:14:13.726Z,8.70
2022-11-29T16:16:45.208Z,8.70
2022-11-29T16:19:24.439Z,8.70
2022-11-29T16:22:24.195Z,8.70
2022-11-29T16:25:03.960Z,8.70
2022-11-29T16:27:34.753Z,8.70
2022-11-29T16:30:03.954Z,8.60
2022-11-29T16:32:35.042Z,8.70
2022-11-29T16:35:17.125Z,8.70
2022-11-29T16:37:46.773Z,8.70
2022-11-29T16:40:23.483Z,8.70
2022-11-29T16:43:20.143Z,8.70
2022-11-29T16:45:48.680Z,8.60
2022-11-29T16:48:30.943Z,8.60
2022-11-29T16:51:25.125Z,8.40
2022-11-29T16:53:56.722Z,8.50
2022-11-29T16:56:27.176Z,8.50
2022-11-29T16:59:20.727Z,8.50
2022-11-29T17:01:51.127Z,8.50
2022-11-29T17:08:36.608Z,8.30
2022-11-29T17:11:29.867Z,8.10
2022-11-29T17:14:03.782Z,7.90
2022-11-29T17:16:33.141Z,7.80
2022-11-29T17:19:07.659Z,7.70
2022-11-29T17:21:37.017Z,7.50
2022-11-29T17:24:12.376Z,7.30
2022-11-29T17:26:41.747Z,7.20
2022-11-29T17:29:12.316Z,7.20
2022-11-29T17:31:43.882Z,7.20
2022-11-29T17:34:13.285Z,7.10
2022-11-29T17:36:48.317Z,7.20
2022-11-29T17:39:20.446Z,7.10
2022-11-29T17:41:50.872Z,6.90
2022-11-29T17:44:20.017Z,6.90
2022-11-29T17:46:57.718Z,6.70
2022-11-29T17:49:28.134Z,6.70
2022-11-29T17:51:59.157Z,6.70
2022-11-29T17:54:35.541Z,6.60
2022-11-29T17:57:05.033Z,6.40
2022-11-29T17:59:33.454Z,6.40
2022-11-29T18:02:02.308Z,6.40
2022-11-29T18:04:30.781Z,6.50
2022-11-29T18:06:59.111Z,6.50
2022-11-29T18:09:30.101Z,6.40
2022-11-29T18:11:58.463Z,6.40
2022-11-29T18:14:28.511Z,6.40
2022-11-29T18:16:58.289Z,6.30
2022-11-29T18:19:28.172Z,6.20
2022-11-29T18:21:56.688Z,6.20
2022-11-29T18:24:25.031Z,6.10
2022-11-29T18:26:55.001Z,5.90
2022-11-29T18:29:24.024Z,5.90
2022-11-29T18:31:52.425Z,5.70
2022-11-29T18:34:21.150Z,5.70
2022-11-29T18:36:50.400Z,5.70
2022-11-29T18:39:20.410Z,5.80
2022-11-29T18:41:52.324Z,5.70
2022-11-29T18:44:29.201Z,5.70
2022-11-29T18:46:58.152Z,5.80
2022-11-29T18:49:26.662Z,5.90
2022-11-29T18:51:55.238Z,5.90
2022-11-29T18:54:23.816Z,5.90
2022-11-29T18:56:52.744Z,6.10
2022-11-29T18:59:27.558Z,6.00
2022-11-29T19:01:58.308Z,6.10
2022-11-29T19:04:26.916Z,6.20
2022-11-29T19:06:55.243Z,6.20
2022-11-29T19:09:25.821Z,6.30
2022-11-29T19:11:59.319Z,6.40
2022-11-29T19:14:30.569Z,6.60
2022-11-29T19:16:58.911Z,6.60
2022-11-29T19:19:27.263Z,6.70
2022-11-29T19:21:55.758Z,6.70
2022-11-29T19:24:24.125Z,6.80
2022-11-29T19:26:55.686Z,7.00
2022-11-29T19:29:24.111Z,7.00
2022-11-29T19:31:54.094Z,7.00
2022-11-29T19:34:22.451Z,7.00
2022-11-29T19:36:57.010Z,6.90
2022-11-29T19:39:28.631Z,7.00
2022-11-29T19:41:56.968Z,7.00
2022-11-29T19:44:29.800Z,7.00
2022-11-29T19:47:00.031Z,7.00
2022-11-29T19:49:29.451Z,7.00
2022-11-29T19:52:00.199Z,7.00
2022-11-29T19:54:28.535Z,7.00
2022-11-29T19:56:58.738Z,6.90
2022-11-29T19:59:27.173Z,7.00
2022-11-29T20:01:55.569Z,7.00
2022-11-29T20:04:25.427Z,7.00
2022-11-29T20:06:54.837Z,7.10
2022-11-29T20:09:24.295Z,7.10
2022-11-29T20:11:52.577Z,7.10
2022-11-29T20:14:21.412Z,7.00
2022-11-29T20:16:50.004Z,6.90
2022-11-29T20:19:18.813Z,7.00
2022-11-29T20:21:49.974Z,7.10
2022-11-29T20:24:19.562Z,7.10
2022-11-29T20:26:49.136Z,7.10
2022-11-29T20:29:19.421Z,7.10
2022-11-29T20:31:51.021Z,7.10
2022-11-29T20:34:20.960Z,7.00
2022-11-29T20:37:22.115Z,7.10
2022-11-29T20:39:55.759Z,7.10
2022-11-29T20:42:47.737Z,7.10
2022-11-29T20:45:17.535Z,7.10
2022-11-29T20:47:52.009Z,7.10
2022-11-29T20:50:23.794Z,7.10
2022-11-29T20:53:06.563Z,7.10
2022-11-29T20:55:37.912Z,7.10
2022-11-29T20:58:06.563Z,7.10
2022-11-29T21:00:35.614Z,7.10
2022-11-29T21:03:04.525Z,7.20
2022-11-29T21:05:33.252Z,7.20
2022-11-29T21:08:03.260Z,7.40
2022-11-29T21:10:31.675Z,7.40
2022-11-29T21:13:00.606Z,7.40
2022-11-29T21:15:29.923Z,7.40
2022-11-29T21:17:59.025Z,7.40
2022-11-29T21:20:28.916Z,7.50
2022-11-29T21:23:04.765Z,7.40
2022-11-29T21:25:46.086Z,7.40
2022-11-29T21:28:16.401Z,7.40
2022-11-29T21:30:45.361Z,7.30
2022-11-29T21:33:14.256Z,7.30
2022-11-29T21:35:42.804Z,7.40
2022-11-29T21:38:21.394Z,7.50
2022-11-29T21:40:50.022Z,7.50
2022-11-29T21:43:18.320Z,7.50
2022-11-29T21:45:48.651Z,7.40
2022-11-29T21:48:34.315Z,7.50
2022-11-29T21:51:03.143Z,7.50
2022-11-29T21:53:34.200Z,7.40
2022-11-29T21:56:05.013Z,7.40
2022-11-29T21:58:35.166Z,7.40
2022-11-29T22:01:11.499Z,7.50
2022-11-29T22:03:40.624Z,7.50
2022-11-29T22:06:11.986Z,7.60
2022-11-29T22:08:42.839Z,7.60
2022-11-29T22:11:13.701Z,7.50
2022-11-29T22:13:57.570Z,7.60
2022-11-29T22:16:26.337Z,7.50
2022-11-29T22:18:55.154Z,7.50
2022-11-29T22:21:24.078Z,7.50
2022-11-29T22:23:54.944Z,7.40
2022-11-29T22:26:23.465Z,7.40
2022-11-29T22:28:52.122Z,7.40
2022-11-29T22:31:20.683Z,7.40
2022-11-29T22:33:49.415Z,7.50
2022-11-29T22:36:18.053Z,7.50
2022-11-29T22:38:46.684Z,7.50
2022-11-29T22:41:17.946Z,7.50
2022-11-29T22:43:46.766Z,7.50
2022-11-29T22:46:17.838Z,7.50
2022-11-29T22:48:47.740Z,7.50
2022-11-29T22:51:17.845Z,7.60
2022-11-29T22:53:50.579Z,7.60
2022-11-29T22:56:20.804Z,7.60
2022-11-29T22:58:49.393Z,7.70
2022-11-29T23:01:20.038Z,7.60
2022-11-29T23:03:51.932Z,7.80
2022-11-29T23:06:22.640Z,7.90
2022-11-29T23:08:52.748Z,7.90
2022-11-29T23:11:25.331Z,7.90
2022-11-29T23:13:54.478Z,7.90
2022-11-29T23:16:26.015Z,7.90
2022-11-29T23:18:55.895Z,7.80
2022-11-29T23:21:26.619Z,7.90
2022-11-29T23:23:56.814Z,7.90
2022-11-29T23:26:28.600Z,7.70
2022-11-29T23:28:57.626Z,7.70
2022-11-29T23:31:26.228Z,7.80
2022-11-29T23:33:54.817Z,7.90
2022-11-29T23:36:23.429Z,7.80
2022-11-29T23:38:52.021Z,7.90
2022-11-29T23:41:20.728Z,7.80
2022-11-29T23:43:50.809Z,7.80
2022-11-29T23:46:21.619Z,7.80
2022-11-29T23:48:50.759Z,7.80
2022-11-29T23:51:20.663Z,7.70
2022-11-29T23:53:52.533Z,7.70
2022-11-29T23:56:22.359Z,7.70
2022-11-29T23:58:52.483Z,7.70
